sensor_id;sensor_type;location;lat;lon;timestamp;temperature;humidity
17202;DHT22;8717;53.588;10.176;2024-02-26T00:02:02;3.10;99.90
17202;DHT22;8717;53.588;10.176;2024-02-26T00:04:29;3.10;99.90
17202;DHT22;8717;53.588;10.176;2024-02-26T00:06:56;3.00;99.90
17202;DHT22;8717;53.588;10.176;2024-02-26T00:09:21;2.90;99.90
17202;DHT22;8717;53.588;10.176;2024-02-26T00:11:48;2.90;99.90
17202;DHT22;8717;53.588;10.176;2024-02-26T00:14:15;2.80;99.90
17202;DHT22;8717;53.588;10.176;2024-02-26T00:16:42;2.70;99.90
17202;DHT22;8717;53.588;10.176;2024-02-26T00:19:12;2.70;99.90
17202;DHT22;8717;53.588;10.176;2024-02-26T00:21:40;2.60;99.90
17202;DHT22;8717;53.588;10.176;2024-02-26T00:24:07;2.60;99.90
17202;DHT22;8717;53.588;10.176;2024-02-26T00:26:34;2.50;99.90
17202;DHT22;8717;53.588;10.176;2024-02-26T00:29:01;2.40;99.90
17202;DHT22;8717;53.588;10.176;2024-02-26T00:31:28;2.40;99.90
17202;DHT22;8717;53.588;10.176;2024-02-26T00:33:54;2.30;99.90
17202;DHT22;8717;53.588;10.176;2024-02-26T00:36:23;2.30;99.90
17202;DHT22;8717;53.588;10.176;2024-02-26T00:38:50;2.20;99.90
17202;DHT22;8717;53.588;10.176;2024-02-26T00:41:17;2.20;99.90
17202;DHT22;8717;53.588;10.176;2024-02-26T00:43:44;2.10;99.90
17202;DHT22;8717;53.588;10.176;2024-02-26T00:46:11;2.10;99.90
17202;DHT22;8717;53.588;10.176;2024-02-26T00:48:38;2.00;99.90
17202;DHT22;8717;53.588;10.176;2024-02-26T00:51:05;2.00;99.90
17202;DHT22;8717;53.588;10.176;2024-02-26T00:53:34;1.90;99.90
17202;DHT22;8717;53.588;10.176;2024-02-26T00:56:01;1.90;99.90
17202;DHT22;8717;53.588;10.176;2024-02-26T00:58:28;1.80;99.90
17202;DHT22;8717;53.588;10.176;2024-02-26T01:00:56;1.70;99.90
17202;DHT22;8717;53.588;10.176;2024-02-26T01:03:23;1.70;99.90
17202;DHT22;8717;53.588;10.176;2024-02-26T01:05:50;1.70;99.90
17202;DHT22;8717;53.588;10.176;2024-02-26T01:08:17;1.70;99.90
17202;DHT22;8717;53.588;10.176;2024-02-26T01:10:45;1.60;99.90
17202;DHT22;8717;53.588;10.176;2024-02-26T01:13:12;1.60;99.90
17202;DHT22;8717;53.588;10.176;2024-02-26T01:15:39;1.50;99.90
17202;DHT22;8717;53.588;10.176;2024-02-26T01:18:06;1.50;99.90
17202;DHT22;8717;53.588;10.176;2024-02-26T01:20:33;1.50;99.90
17202;DHT22;8717;53.588;10.176;2024-02-26T01:23:00;1.40;99.90
17202;DHT22;8717;53.588;10.176;2024-02-26T01:25:27;1.40;99.90
17202;DHT22;8717;53.588;10.176;2024-02-26T01:27:55;1.40;99.90
17202;DHT22;8717;53.588;10.176;2024-02-26T01:30:22;1.30;99.90
17202;DHT22;8717;53.588;10.176;2024-02-26T01:32:51;1.30;99.90
17202;DHT22;8717;53.588;10.176;2024-02-26T01:35:17;1.30;99.90
17202;DHT22;8717;53.588;10.176;2024-02-26T01:37:45;1.20;99.90
17202;DHT22;8717;53.588;10.176;2024-02-26T01:40:12;1.20;99.90
17202;DHT22;8717;53.588;10.176;2024-02-26T01:42:43;1.10;99.90
17202;DHT22;8717;53.588;10.176;2024-02-26T01:45:14;1.10;99.90
17202;DHT22;8717;53.588;10.176;2024-02-26T01:47:48;1.10;99.90
17202;DHT22;8717;53.588;10.176;2024-02-26T01:50:16;1.10;99.90
17202;DHT22;8717;53.588;10.176;2024-02-26T01:52:43;1.00;99.90
17202;DHT22;8717;53.588;10.176;2024-02-26T01:55:11;1.00;99.90
17202;DHT22;8717;53.588;10.176;2024-02-26T01:57:39;1.00;99.90
17202;DHT22;8717;53.588;10.176;2024-02-26T02:00:07;0.90;99.90
17202;DHT22;8717;53.588;10.176;2024-02-26T02:02:36;0.90;99.90
17202;DHT22;8717;53.588;10.176;2024-02-26T02:05:05;0.90;99.90
17202;DHT22;8717;53.588;10.176;2024-02-26T02:07:32;0.90;99.90
17202;DHT22;8717;53.588;10.176;2024-02-26T02:09:59;0.90;99.90
17202;DHT22;8717;53.588;10.176;2024-02-26T02:12:27;0.80;99.90
17202;DHT22;8717;53.588;10.176;2024-02-26T02:14:54;0.80;99.90
17202;DHT22;8717;53.588;10.176;2024-02-26T02:17:21;0.70;99.90
17202;DHT22;8717;53.588;10.176;2024-02-26T02:19:49;0.70;99.90
17202;DHT22;8717;53.588;10.176;2024-02-26T02:22:18;0.70;99.90
17202;DHT22;8717;53.588;10.176;2024-02-26T02:24:45;0.70;99.90
17202;DHT22;8717;53.588;10.176;2024-02-26T02:27:12;0.60;99.90
17202;DHT22;8717;53.588;10.176;2024-02-26T02:29:39;0.70;99.90
17202;DHT22;8717;53.588;10.176;2024-02-26T02:32:06;0.60;99.90
17202;DHT22;8717;53.588;10.176;2024-02-26T02:34:33;0.60;99.90
17202;DHT22;8717;53.588;10.176;2024-02-26T02:37:00;0.60;99.90
17202;DHT22;8717;53.588;10.176;2024-02-26T02:39:28;0.50;99.90
17202;DHT22;8717;53.588;10.176;2024-02-26T02:41:55;0.50;99.90
17202;DHT22;8717;53.588;10.176;2024-02-26T02:44:22;0.50;99.90
17202;DHT22;8717;53.588;10.176;2024-02-26T02:46:49;0.40;99.90
17202;DHT22;8717;53.588;10.176;2024-02-26T02:49:17;0.40;99.90
17202;DHT22;8717;53.588;10.176;2024-02-26T02:51:44;0.40;99.90
17202;DHT22;8717;53.588;10.176;2024-02-26T02:54:11;0.40;99.90
17202;DHT22;8717;53.588;10.176;2024-02-26T02:56:39;0.30;99.90
17202;DHT22;8717;53.588;10.176;2024-02-26T02:59:05;0.30;99.90
17202;DHT22;8717;53.588;10.176;2024-02-26T03:01:32;0.30;99.90
17202;DHT22;8717;53.588;10.176;2024-02-26T03:03:59;0.30;99.90
17202;DHT22;8717;53.588;10.176;2024-02-26T03:06:26;0.30;99.90
17202;DHT22;8717;53.588;10.176;2024-02-26T03:08:54;0.30;99.90
17202;DHT22;8717;53.588;10.176;2024-02-26T03:11:21;0.20;99.90
17202;DHT22;8717;53.588;10.176;2024-02-26T03:13:49;0.20;99.90
17202;DHT22;8717;53.588;10.176;2024-02-26T03:16:15;0.20;99.90
17202;DHT22;8717;53.588;10.176;2024-02-26T03:18:43;0.20;99.90
17202;DHT22;8717;53.588;10.176;2024-02-26T03:21:10;0.20;99.90
17202;DHT22;8717;53.588;10.176;2024-02-26T03:23:37;0.10;99.90
17202;DHT22;8717;53.588;10.176;2024-02-26T03:26:04;0.10;99.90
17202;DHT22;8717;53.588;10.176;2024-02-26T03:28:30;0.10;99.90
17202;DHT22;8717;53.588;10.176;2024-02-26T03:31:00;0.10;99.90
17202;DHT22;8717;53.588;10.176;2024-02-26T03:33:27;0.10;99.90
17202;DHT22;8717;53.588;10.176;2024-02-26T03:35:55;0.10;99.90
17202;DHT22;8717;53.588;10.176;2024-02-26T03:38:22;0.00;99.90
17202;DHT22;8717;53.588;10.176;2024-02-26T03:40:49;0.00;99.90
17202;DHT22;8717;53.588;10.176;2024-02-26T03:43:16;0.00;99.90
17202;DHT22;8717;53.588;10.176;2024-02-26T03:45:43;0.00;99.90
17202;DHT22;8717;53.588;10.176;2024-02-26T03:48:12;0.00;99.90
17202;DHT22;8717;53.588;10.176;2024-02-26T03:50:39;-0.10;99.90
17202;DHT22;8717;53.588;10.176;2024-02-26T03:53:06;-0.10;99.90
17202;DHT22;8717;53.588;10.176;2024-02-26T03:55:34;-0.10;99.90
17202;DHT22;8717;53.588;10.176;2024-02-26T03:58:01;-0.10;99.90
17202;DHT22;8717;53.588;10.176;2024-02-26T04:00:28;-0.10;99.90
17202;DHT22;8717;53.588;10.176;2024-02-26T04:02:55;-0.20;99.90
17202;DHT22;8717;53.588;10.176;2024-02-26T04:05:24;-0.20;99.90
17202;DHT22;8717;53.588;10.176;2024-02-26T04:07:51;-0.20;99.90
17202;DHT22;8717;53.588;10.176;2024-02-26T04:10:18;-0.30;99.90
17202;DHT22;8717;53.588;10.176;2024-02-26T04:12:45;-0.20;99.90
17202;DHT22;8717;53.588;10.176;2024-02-26T04:15:12;-0.30;99.90
17202;DHT22;8717;53.588;10.176;2024-02-26T04:17:40;-0.40;99.90
17202;DHT22;8717;53.588;10.176;2024-02-26T04:20:12;-0.40;99.90
17202;DHT22;8717;53.588;10.176;2024-02-26T04:22:40;-0.40;99.90
17202;DHT22;8717;53.588;10.176;2024-02-26T04:25:08;-0.30;99.90
17202;DHT22;8717;53.588;10.176;2024-02-26T04:27:35;-0.30;99.90
17202;DHT22;8717;53.588;10.176;2024-02-26T04:30:02;-0.30;99.90
17202;DHT22;8717;53.588;10.176;2024-02-26T04:32:30;-0.30;99.90
17202;DHT22;8717;53.588;10.176;2024-02-26T04:34:57;-0.30;99.90
17202;DHT22;8717;53.588;10.176;2024-02-26T04:37:24;-0.30;99.90
17202;DHT22;8717;53.588;10.176;2024-02-26T04:39:52;-0.30;99.90
17202;DHT22;8717;53.588;10.176;2024-02-26T04:42:18;-0.20;99.90
17202;DHT22;8717;53.588;10.176;2024-02-26T04:44:45;-0.30;99.90
17202;DHT22;8717;53.588;10.176;2024-02-26T04:47:12;-0.30;99.90
17202;DHT22;8717;53.588;10.176;2024-02-26T04:49:39;-0.30;99.90
17202;DHT22;8717;53.588;10.176;2024-02-26T04:52:06;-0.40;99.90
17202;DHT22;8717;53.588;10.176;2024-02-26T04:54:33;-0.40;99.90
17202;DHT22;8717;53.588;10.176;2024-02-26T04:57:01;-0.40;99.90
17202;DHT22;8717;53.588;10.176;2024-02-26T04:59:28;-0.40;99.90
17202;DHT22;8717;53.588;10.176;2024-02-26T05:01:55;-0.40;99.90
17202;DHT22;8717;53.588;10.176;2024-02-26T05:04:21;-0.40;99.90
17202;DHT22;8717;53.588;10.176;2024-02-26T05:06:48;-0.50;99.90
17202;DHT22;8717;53.588;10.176;2024-02-26T05:09:15;-0.50;99.90
17202;DHT22;8717;53.588;10.176;2024-02-26T05:11:42;-0.50;99.90
17202;DHT22;8717;53.588;10.176;2024-02-26T05:14:11;-0.50;99.90
17202;DHT22;8717;53.588;10.176;2024-02-26T05:16:38;-0.50;99.90
17202;DHT22;8717;53.588;10.176;2024-02-26T05:19:05;-0.50;99.90
17202;DHT22;8717;53.588;10.176;2024-02-26T05:21:32;-0.50;99.90
17202;DHT22;8717;53.588;10.176;2024-02-26T05:24:00;-0.50;99.90
17202;DHT22;8717;53.588;10.176;2024-02-26T05:26:27;-0.50;99.90
17202;DHT22;8717;53.588;10.176;2024-02-26T05:28:54;-0.50;99.90
17202;DHT22;8717;53.588;10.176;2024-02-26T05:31:26;-0.50;99.90
17202;DHT22;8717;53.588;10.176;2024-02-26T05:33:54;-0.50;99.90
17202;DHT22;8717;53.588;10.176;2024-02-26T05:36:21;-0.50;99.90
17202;DHT22;8717;53.588;10.176;2024-02-26T05:38:49;-0.60;99.90
17202;DHT22;8717;53.588;10.176;2024-02-26T05:41:16;-0.60;99.90
17202;DHT22;8717;53.588;10.176;2024-02-26T05:43:48;-0.50;99.90
17202;DHT22;8717;53.588;10.176;2024-02-26T05:46:16;-0.50;99.90
17202;DHT22;8717;53.588;10.176;2024-02-26T05:48:46;-0.50;99.90
17202;DHT22;8717;53.588;10.176;2024-02-26T05:51:13;-0.40;99.90
17202;DHT22;8717;53.588;10.176;2024-02-26T05:53:41;-0.40;99.90
17202;DHT22;8717;53.588;10.176;2024-02-26T05:56:08;-0.40;99.90
17202;DHT22;8717;53.588;10.176;2024-02-26T05:58:35;-0.50;99.90
17202;DHT22;8717;53.588;10.176;2024-02-26T06:01:02;-0.40;99.90
17202;DHT22;8717;53.588;10.176;2024-02-26T06:03:29;-0.40;99.90
17202;DHT22;8717;53.588;10.176;2024-02-26T06:05:58;-0.40;99.90
17202;DHT22;8717;53.588;10.176;2024-02-26T06:08:25;-0.30;99.90
17202;DHT22;8717;53.588;10.176;2024-02-26T06:10:51;-0.30;99.90
17202;DHT22;8717;53.588;10.176;2024-02-26T06:13:18;-0.30;99.90
17202;DHT22;8717;53.588;10.176;2024-02-26T06:15:46;-0.20;99.90
17202;DHT22;8717;53.588;10.176;2024-02-26T06:18:13;-0.20;99.90
17202;DHT22;8717;53.588;10.176;2024-02-26T06:20:40;-0.10;99.90
17202;DHT22;8717;53.588;10.176;2024-02-26T06:23:08;-0.10;99.90
17202;DHT22;8717;53.588;10.176;2024-02-26T06:25:35;0.00;99.90
17202;DHT22;8717;53.588;10.176;2024-02-26T06:28:02;0.00;99.90
17202;DHT22;8717;53.588;10.176;2024-02-26T06:30:30;0.10;99.90
17202;DHT22;8717;53.588;10.176;2024-02-26T06:32:57;0.10;99.90
17202;DHT22;8717;53.588;10.176;2024-02-26T06:35:23;0.20;99.90
17202;DHT22;8717;53.588;10.176;2024-02-26T06:37:50;0.20;99.90
17202;DHT22;8717;53.588;10.176;2024-02-26T06:40:19;0.20;99.90
17202;DHT22;8717;53.588;10.176;2024-02-26T06:42:46;0.20;99.90
17202;DHT22;8717;53.588;10.176;2024-02-26T06:45:13;0.20;99.90
17202;DHT22;8717;53.588;10.176;2024-02-26T06:47:40;0.30;99.90
17202;DHT22;8717;53.588;10.176;2024-02-26T06:50:09;0.20;99.90
17202;DHT22;8717;53.588;10.176;2024-02-26T06:52:35;0.30;99.90
17202;DHT22;8717;53.588;10.176;2024-02-26T06:55:02;0.30;99.90
17202;DHT22;8717;53.588;10.176;2024-02-26T06:57:31;0.30;99.90
17202;DHT22;8717;53.588;10.176;2024-02-26T06:59:58;0.40;99.90
17202;DHT22;8717;53.588;10.176;2024-02-26T07:02:25;0.40;99.90
17202;DHT22;8717;53.588;10.176;2024-02-26T07:04:52;0.40;99.90
17202;DHT22;8717;53.588;10.176;2024-02-26T07:07:19;0.50;99.90
17202;DHT22;8717;53.588;10.176;2024-02-26T07:09:49;0.50;99.90
17202;DHT22;8717;53.588;10.176;2024-02-26T07:12:17;0.60;99.90
17202;DHT22;8717;53.588;10.176;2024-02-26T07:14:46;0.60;99.90
17202;DHT22;8717;53.588;10.176;2024-02-26T07:17:13;0.70;99.90
17202;DHT22;8717;53.588;10.176;2024-02-26T07:19:41;0.70;99.90
17202;DHT22;8717;53.588;10.176;2024-02-26T07:22:08;0.80;99.90
17202;DHT22;8717;53.588;10.176;2024-02-26T07:24:35;0.80;99.90
17202;DHT22;8717;53.588;10.176;2024-02-26T07:27:02;0.90;99.90
17202;DHT22;8717;53.588;10.176;2024-02-26T07:29:29;0.90;99.90
17202;DHT22;8717;53.588;10.176;2024-02-26T07:31:57;1.00;99.90
17202;DHT22;8717;53.588;10.176;2024-02-26T07:34:24;1.00;99.90
17202;DHT22;8717;53.588;10.176;2024-02-26T07:36:54;1.10;99.90
17202;DHT22;8717;53.588;10.176;2024-02-26T07:39:21;1.10;99.90
17202;DHT22;8717;53.588;10.176;2024-02-26T07:41:48;1.20;99.90
17202;DHT22;8717;53.588;10.176;2024-02-26T07:44:17;1.30;99.90
17202;DHT22;8717;53.588;10.176;2024-02-26T07:46:44;1.30;99.90
17202;DHT22;8717;53.588;10.176;2024-02-26T07:49:12;1.40;99.90
17202;DHT22;8717;53.588;10.176;2024-02-26T07:51:38;1.40;99.90
17202;DHT22;8717;53.588;10.176;2024-02-26T07:54:05;1.50;99.90
17202;DHT22;8717;53.588;10.176;2024-02-26T07:56:32;1.60;99.90
17202;DHT22;8717;53.588;10.176;2024-02-26T07:58:58;1.70;99.90
17202;DHT22;8717;53.588;10.176;2024-02-26T08:01:25;1.80;99.90
17202;DHT22;8717;53.588;10.176;2024-02-26T08:03:52;1.90;99.90
17202;DHT22;8717;53.588;10.176;2024-02-26T08:06:20;1.90;99.90
17202;DHT22;8717;53.588;10.176;2024-02-26T08:08:47;2.00;99.90
17202;DHT22;8717;53.588;10.176;2024-02-26T08:11:14;2.10;99.90
17202;DHT22;8717;53.588;10.176;2024-02-26T08:13:42;2.10;99.90
17202;DHT22;8717;53.588;10.176;2024-02-26T08:16:08;2.20;99.90
17202;DHT22;8717;53.588;10.176;2024-02-26T08:18:35;2.20;99.90
17202;DHT22;8717;53.588;10.176;2024-02-26T08:21:02;2.30;99.90
17202;DHT22;8717;53.588;10.176;2024-02-26T08:23:30;2.30;99.90
17202;DHT22;8717;53.588;10.176;2024-02-26T08:25:57;2.40;99.90
17202;DHT22;8717;53.588;10.176;2024-02-26T08:28:24;2.40;99.90
17202;DHT22;8717;53.588;10.176;2024-02-26T08:30:51;2.50;99.90
17202;DHT22;8717;53.588;10.176;2024-02-26T08:33:17;2.50;99.90
17202;DHT22;8717;53.588;10.176;2024-02-26T08:35:44;2.50;99.90
17202;DHT22;8717;53.588;10.176;2024-02-26T08:38:11;2.60;99.90
17202;DHT22;8717;53.588;10.176;2024-02-26T08:40:39;2.70;99.90
17202;DHT22;8717;53.588;10.176;2024-02-26T08:43:05;2.70;99.90
17202;DHT22;8717;53.588;10.176;2024-02-26T08:45:32;2.70;99.90
17202;DHT22;8717;53.588;10.176;2024-02-26T08:47:59;2.80;99.90
17202;DHT22;8717;53.588;10.176;2024-02-26T08:50:26;2.80;99.90
17202;DHT22;8717;53.588;10.176;2024-02-26T08:52:52;2.80;99.90
17202;DHT22;8717;53.588;10.176;2024-02-26T08:55:19;2.80;99.90
17202;DHT22;8717;53.588;10.176;2024-02-26T08:57:47;2.90;99.90
17202;DHT22;8717;53.588;10.176;2024-02-26T09:00:15;2.90;99.90
17202;DHT22;8717;53.588;10.176;2024-02-26T09:02:43;2.90;99.90
17202;DHT22;8717;53.588;10.176;2024-02-26T09:05:10;2.90;99.90
17202;DHT22;8717;53.588;10.176;2024-02-26T09:07:36;3.00;99.90
17202;DHT22;8717;53.588;10.176;2024-02-26T09:10:03;3.00;99.90
17202;DHT22;8717;53.588;10.176;2024-02-26T09:12:30;3.10;99.90
17202;DHT22;8717;53.588;10.176;2024-02-26T09:14:58;3.20;99.90
17202;DHT22;8717;53.588;10.176;2024-02-26T09:17:24;3.30;99.90
17202;DHT22;8717;53.588;10.176;2024-02-26T09:19:51;3.30;99.90
17202;DHT22;8717;53.588;10.176;2024-02-26T09:22:18;3.40;99.90
17202;DHT22;8717;53.588;10.176;2024-02-26T09:24:45;3.60;99.90
17202;DHT22;8717;53.588;10.176;2024-02-26T09:27:11;3.70;99.90
17202;DHT22;8717;53.588;10.176;2024-02-26T09:29:38;3.80;99.90
17202;DHT22;8717;53.588;10.176;2024-02-26T09:32:06;3.90;99.90
17202;DHT22;8717;53.588;10.176;2024-02-26T09:34:33;4.00;99.90
17202;DHT22;8717;53.588;10.176;2024-02-26T09:37:00;4.10;99.90
17202;DHT22;8717;53.588;10.176;2024-02-26T09:39:27;4.20;99.90
17202;DHT22;8717;53.588;10.176;2024-02-26T09:41:53;4.30;99.90
17202;DHT22;8717;53.588;10.176;2024-02-26T09:44:20;4.40;99.90
17202;DHT22;8717;53.588;10.176;2024-02-26T09:46:48;4.40;99.90
17202;DHT22;8717;53.588;10.176;2024-02-26T09:49:17;4.50;99.90
17202;DHT22;8717;53.588;10.176;2024-02-26T09:51:45;4.50;99.90
17202;DHT22;8717;53.588;10.176;2024-02-26T09:54:12;4.50;99.90
17202;DHT22;8717;53.588;10.176;2024-02-26T09:56:39;4.60;99.90
17202;DHT22;8717;53.588;10.176;2024-02-26T09:59:10;4.60;99.90
17202;DHT22;8717;53.588;10.176;2024-02-26T10:01:41;4.70;99.90
17202;DHT22;8717;53.588;10.176;2024-02-26T10:04:09;4.70;99.90
17202;DHT22;8717;53.588;10.176;2024-02-26T10:06:37;4.80;99.90
17202;DHT22;8717;53.588;10.176;2024-02-26T10:09:05;4.80;99.90
17202;DHT22;8717;53.588;10.176;2024-02-26T10:11:35;4.90;99.90
17202;DHT22;8717;53.588;10.176;2024-02-26T10:14:03;4.90;99.90
17202;DHT22;8717;53.588;10.176;2024-02-26T10:16:30;5.00;99.90
17202;DHT22;8717;53.588;10.176;2024-02-26T10:18:57;5.00;99.90
17202;DHT22;8717;53.588;10.176;2024-02-26T10:21:24;5.00;99.90
17202;DHT22;8717;53.588;10.176;2024-02-26T10:23:52;5.00;99.90
17202;DHT22;8717;53.588;10.176;2024-02-26T10:26:20;5.10;99.90
17202;DHT22;8717;53.588;10.176;2024-02-26T10:28:47;5.10;99.90
17202;DHT22;8717;53.588;10.176;2024-02-26T10:31:14;5.20;99.90
17202;DHT22;8717;53.588;10.176;2024-02-26T10:33:42;5.20;99.90
17202;DHT22;8717;53.588;10.176;2024-02-26T10:36:09;5.20;99.90
17202;DHT22;8717;53.588;10.176;2024-02-26T10:38:37;5.30;99.90
17202;DHT22;8717;53.588;10.176;2024-02-26T10:41:06;5.30;99.90
17202;DHT22;8717;53.588;10.176;2024-02-26T10:43:34;5.30;99.90
17202;DHT22;8717;53.588;10.176;2024-02-26T10:46:00;5.30;99.90
17202;DHT22;8717;53.588;10.176;2024-02-26T10:48:27;5.40;99.90
17202;DHT22;8717;53.588;10.176;2024-02-26T10:50:54;5.50;99.90
17202;DHT22;8717;53.588;10.176;2024-02-26T10:53:23;5.60;99.90
17202;DHT22;8717;53.588;10.176;2024-02-26T10:55:54;5.70;99.90
17202;DHT22;8717;53.588;10.176;2024-02-26T10:58:23;5.80;99.90
17202;DHT22;8717;53.588;10.176;2024-02-26T11:00:51;5.80;99.90
17202;DHT22;8717;53.588;10.176;2024-02-26T11:03:19;5.80;99.90
17202;DHT22;8717;53.588;10.176;2024-02-26T11:05:48;5.90;99.90
17202;DHT22;8717;53.588;10.176;2024-02-26T11:08:16;5.90;99.90
17202;DHT22;8717;53.588;10.176;2024-02-26T11:10:46;5.90;99.90
17202;DHT22;8717;53.588;10.176;2024-02-26T11:13:14;5.90;99.90
17202;DHT22;8717;53.588;10.176;2024-02-26T11:15:44;5.90;99.90
17202;DHT22;8717;53.588;10.176;2024-02-26T11:18:14;5.90;99.90
17202;DHT22;8717;53.588;10.176;2024-02-26T11:20:41;5.90;99.90
17202;DHT22;8717;53.588;10.176;2024-02-26T11:23:09;5.90;99.90
17202;DHT22;8717;53.588;10.176;2024-02-26T11:25:36;6.00;99.90
17202;DHT22;8717;53.588;10.176;2024-02-26T11:28:06;6.10;99.90
17202;DHT22;8717;53.588;10.176;2024-02-26T11:30:37;6.10;99.90
17202;DHT22;8717;53.588;10.176;2024-02-26T11:33:06;6.20;99.90
17202;DHT22;8717;53.588;10.176;2024-02-26T11:35:34;6.20;99.90
17202;DHT22;8717;53.588;10.176;2024-02-26T11:38:02;6.30;99.90
17202;DHT22;8717;53.588;10.176;2024-02-26T11:40:32;6.30;99.90
17202;DHT22;8717;53.588;10.176;2024-02-26T11:42:59;6.30;99.90
17202;DHT22;8717;53.588;10.176;2024-02-26T11:45:47;6.30;99.90
17202;DHT22;8717;53.588;10.176;2024-02-26T11:48:20;6.30;99.90
17202;DHT22;8717;53.588;10.176;2024-02-26T11:50:48;6.40;99.90
17202;DHT22;8717;53.588;10.176;2024-02-26T11:53:23;6.40;99.90
17202;DHT22;8717;53.588;10.176;2024-02-26T11:56:13;6.40;99.90
17202;DHT22;8717;53.588;10.176;2024-02-26T11:58:40;6.40;99.90
17202;DHT22;8717;53.588;10.176;2024-02-26T12:01:37;6.40;99.90
17202;DHT22;8717;53.588;10.176;2024-02-26T12:04:06;6.40;99.90
17202;DHT22;8717;53.588;10.176;2024-02-26T12:06:41;6.50;99.90
17202;DHT22;8717;53.588;10.176;2024-02-26T12:09:08;6.50;99.90
17202;DHT22;8717;53.588;10.176;2024-02-26T12:11:37;6.60;99.90
17202;DHT22;8717;53.588;10.176;2024-02-26T12:14:06;6.60;99.90
17202;DHT22;8717;53.588;10.176;2024-02-26T12:16:37;6.70;99.90
17202;DHT22;8717;53.588;10.176;2024-02-26T12:19:07;6.70;99.90
17202;DHT22;8717;53.588;10.176;2024-02-26T12:21:35;6.80;99.90
17202;DHT22;8717;53.588;10.176;2024-02-26T12:24:13;6.80;99.90
17202;DHT22;8717;53.588;10.176;2024-02-26T12:26:41;6.80;99.90
17202;DHT22;8717;53.588;10.176;2024-02-26T12:29:08;6.90;99.90
17202;DHT22;8717;53.588;10.176;2024-02-26T12:31:37;6.90;99.90
17202;DHT22;8717;53.588;10.176;2024-02-26T12:34:06;7.00;99.90
17202;DHT22;8717;53.588;10.176;2024-02-26T12:36:35;7.00;99.90
17202;DHT22;8717;53.588;10.176;2024-02-26T12:39:01;7.10;99.90
17202;DHT22;8717;53.588;10.176;2024-02-26T12:41:28;7.10;99.90
17202;DHT22;8717;53.588;10.176;2024-02-26T12:43:55;7.20;99.90
17202;DHT22;8717;53.588;10.176;2024-02-26T12:46:23;7.40;99.90
17202;DHT22;8717;53.588;10.176;2024-02-26T12:48:49;7.50;99.90
17202;DHT22;8717;53.588;10.176;2024-02-26T12:51:18;7.50;99.90
17202;DHT22;8717;53.588;10.176;2024-02-26T12:53:46;7.50;99.90
17202;DHT22;8717;53.588;10.176;2024-02-26T12:56:16;7.60;99.90
17202;DHT22;8717;53.588;10.176;2024-02-26T12:58:43;7.60;99.90
17202;DHT22;8717;53.588;10.176;2024-02-26T13:01:14;7.60;99.90
17202;DHT22;8717;53.588;10.176;2024-02-26T13:03:41;7.60;99.90
17202;DHT22;8717;53.588;10.176;2024-02-26T13:06:09;7.60;99.90
17202;DHT22;8717;53.588;10.176;2024-02-26T13:08:37;7.60;99.90
17202;DHT22;8717;53.588;10.176;2024-02-26T13:11:04;7.60;99.90
17202;DHT22;8717;53.588;10.176;2024-02-26T13:13:31;7.60;99.90
17202;DHT22;8717;53.588;10.176;2024-02-26T13:16:03;7.70;99.90
17202;DHT22;8717;53.588;10.176;2024-02-26T13:18:31;7.70;99.90
17202;DHT22;8717;53.588;10.176;2024-02-26T13:21:09;7.80;99.90
17202;DHT22;8717;53.588;10.176;2024-02-26T13:23:37;7.90;99.90
17202;DHT22;8717;53.588;10.176;2024-02-26T13:26:04;7.80;99.90
17202;DHT22;8717;53.588;10.176;2024-02-26T13:28:32;7.80;99.90
17202;DHT22;8717;53.588;10.176;2024-02-26T13:31:00;7.80;99.90
17202;DHT22;8717;53.588;10.176;2024-02-26T13:33:29;7.80;99.90
17202;DHT22;8717;53.588;10.176;2024-02-26T13:35:57;7.80;99.90
17202;DHT22;8717;53.588;10.176;2024-02-26T13:38:24;7.90;99.90
17202;DHT22;8717;53.588;10.176;2024-02-26T13:40:53;7.90;99.90
17202;DHT22;8717;53.588;10.176;2024-02-26T13:43:20;7.90;99.90
17202;DHT22;8717;53.588;10.176;2024-02-26T13:45:47;8.00;99.90
17202;DHT22;8717;53.588;10.176;2024-02-26T13:48:14;8.00;99.90
17202;DHT22;8717;53.588;10.176;2024-02-26T13:50:42;8.00;99.90
17202;DHT22;8717;53.588;10.176;2024-02-26T13:53:11;8.00;99.90
17202;DHT22;8717;53.588;10.176;2024-02-26T13:55:39;8.00;99.90
17202;DHT22;8717;53.588;10.176;2024-02-26T13:58:11;8.10;99.90
17202;DHT22;8717;53.588;10.176;2024-02-26T14:00:39;8.10;99.90
17202;DHT22;8717;53.588;10.176;2024-02-26T14:03:07;8.20;99.90
17202;DHT22;8717;53.588;10.176;2024-02-26T14:05:33;8.30;99.90
17202;DHT22;8717;53.588;10.176;2024-02-26T14:08:00;8.30;99.90
17202;DHT22;8717;53.588;10.176;2024-02-26T14:10:27;8.30;99.90
17202;DHT22;8717;53.588;10.176;2024-02-26T14:12:54;8.40;99.90
17202;DHT22;8717;53.588;10.176;2024-02-26T14:15:22;8.40;99.90
17202;DHT22;8717;53.588;10.176;2024-02-26T14:17:49;8.30;99.90
17202;DHT22;8717;53.588;10.176;2024-02-26T14:20:20;8.30;99.90
17202;DHT22;8717;53.588;10.176;2024-02-26T14:22:47;8.30;99.90
17202;DHT22;8717;53.588;10.176;2024-02-26T14:25:13;8.20;99.90
17202;DHT22;8717;53.588;10.176;2024-02-26T14:27:39;8.10;99.90
17202;DHT22;8717;53.588;10.176;2024-02-26T14:30:07;8.00;99.90
17202;DHT22;8717;53.588;10.176;2024-02-26T14:32:35;7.90;99.90
17202;DHT22;8717;53.588;10.176;2024-02-26T14:35:05;7.80;99.90
17202;DHT22;8717;53.588;10.176;2024-02-26T14:37:32;7.70;99.90
17202;DHT22;8717;53.588;10.176;2024-02-26T14:39:58;7.60;99.90
17202;DHT22;8717;53.588;10.176;2024-02-26T14:42:25;7.60;99.90
17202;DHT22;8717;53.588;10.176;2024-02-26T14:44:52;7.50;99.90
17202;DHT22;8717;53.588;10.176;2024-02-26T14:47:18;7.50;99.90
17202;DHT22;8717;53.588;10.176;2024-02-26T14:49:47;7.40;99.90
17202;DHT22;8717;53.588;10.176;2024-02-26T14:52:14;7.40;99.90
17202;DHT22;8717;53.588;10.176;2024-02-26T14:54:41;7.30;99.90
17202;DHT22;8717;53.588;10.176;2024-02-26T14:57:08;7.30;99.90
17202;DHT22;8717;53.588;10.176;2024-02-26T14:59:35;7.20;99.90
17202;DHT22;8717;53.588;10.176;2024-02-26T15:02:02;7.20;99.90
17202;DHT22;8717;53.588;10.176;2024-02-26T15:04:29;7.20;99.90
17202;DHT22;8717;53.588;10.176;2024-02-26T15:06:57;7.10;99.90
17202;DHT22;8717;53.588;10.176;2024-02-26T15:09:24;7.10;99.90
17202;DHT22;8717;53.588;10.176;2024-02-26T15:11:50;7.00;99.90
17202;DHT22;8717;53.588;10.176;2024-02-26T15:14:17;7.00;99.90
17202;DHT22;8717;53.588;10.176;2024-02-26T15:16:44;7.00;99.90
17202;DHT22;8717;53.588;10.176;2024-02-26T15:19:10;6.90;99.90
17202;DHT22;8717;53.588;10.176;2024-02-26T15:21:42;6.90;99.90
17202;DHT22;8717;53.588;10.176;2024-02-26T15:24:11;6.80;99.90
17202;DHT22;8717;53.588;10.176;2024-02-26T15:26:38;6.70;99.90
17202;DHT22;8717;53.588;10.176;2024-02-26T15:29:05;6.70;99.90
17202;DHT22;8717;53.588;10.176;2024-02-26T15:31:33;6.60;99.90
17202;DHT22;8717;53.588;10.176;2024-02-26T15:34:00;6.50;99.90
17202;DHT22;8717;53.588;10.176;2024-02-26T15:36:27;6.50;99.90
17202;DHT22;8717;53.588;10.176;2024-02-26T15:38:53;6.50;99.90
17202;DHT22;8717;53.588;10.176;2024-02-26T15:41:21;6.40;99.90
17202;DHT22;8717;53.588;10.176;2024-02-26T15:43:48;6.40;99.90
17202;DHT22;8717;53.588;10.176;2024-02-26T15:46:16;6.40;99.90